Time;durP1;ratioP1;P1;durP2;ratioP2;P2;SDS_P1;SDS_P2;PMS_P1;PMS_P2;Temp;Humidity;BMP_temperature;BMP_pressure;BME280_temperature;BME280_humidity;BME280_pressure;Samples;Min_cycle;Max_cycle;Signal;HPM_P1;HPM_P2
2023/04/03 04:11:51;;;;;;;9.05;5.95;;;;;;;2.99;100.00;100275.97;5562297;32;196301;-85
2023/04/03 04:14:55;;;;;;;9.30;5.28;;;;;;;2.95;100.00;100285.66;5549359;32;33694;-83
2023/04/03 04:17:57;;;;;;;8.30;5.45;;;;;;;2.82;100.00;100278.03;5550392;32;34343;-84
2023/04/03 04:21:00;;;;;;;7.65;5.18;;;;;;;2.77;100.00;100284.28;5549743;32;33847;-84
2023/04/03 04:24:03;;;;;;;9.05;6.10;;;;;;;2.73;100.00;100285.22;5549817;32;33842;-84
2023/04/03 04:27:06;;;;;;;9.13;5.65;;;;;;;2.76;100.00;100291.25;5550528;32;34013;-84
2023/04/03 04:30:10;;;;;;;7.82;5.57;;;;;;;2.81;100.00;100293.78;5554349;32;33421;-85
2023/04/03 04:33:14;;;;;;;8.27;5.80;;;;;;;2.71;100.00;100300.09;5551248;32;33774;-85
2023/04/03 04:36:17;;;;;;;8.43;5.93;;;;;;;2.64;100.00;100299.34;5549665;32;34387;-85
2023/04/03 04:39:20;;;;;;;7.12;5.25;;;;;;;2.64;100.00;100297.59;5551868;32;34021;-85
2023/04/03 04:42:23;;;;;;;7.97;5.87;;;;;;;2.59;100.00;100288.94;5560891;32;33956;-85
2023/04/03 04:45:27;;;;;;;8.63;5.72;;;;;;;2.61;100.00;100300.25;5550669;32;33757;-85
2023/04/03 04:48:30;;;;;;;8.38;5.93;;;;;;;2.59;100.00;100299.44;5555091;32;34031;-85
2023/04/03 04:51:34;;;;;;;9.32;5.60;;;;;;;2.63;100.00;100297.63;5569774;32;33940;-85
2023/04/03 04:54:52;;;;;;;8.45;5.75;;;;;;;2.82;100.00;100298.16;5569545;32;33855;-85
2023/04/03 04:57:55;;;;;;;8.13;5.87;;;;;;;2.75;100.00;100292.16;5569067;32;34705;-85
2023/04/03 05:01:05;;;;;;;9.80;6.15;;;;;;;2.77;100.00;100297.38;5557135;32;33677;-85
2023/04/03 05:04:09;;;;;;;7.27;5.60;;;;;;;2.75;100.00;100307.00;5551401;32;34175;-85
2023/04/03 05:07:13;;;;;;;7.50;5.95;;;;;;;2.76;100.00;100309.59;5562990;32;35063;-84
2023/04/03 05:10:16;;;;;;;7.95;5.80;;;;;;;2.84;100.00;100304.22;5553588;32;34674;-89
2023/04/03 05:13:28;;;;;;;12.43;5.97;;;;;;;2.93;100.00;100308.41;5549041;32;34200;-86
2023/04/03 05:16:32;;;;;;;7.75;5.75;;;;;;;2.92;100.00;100315.41;5539044;32;34165;-85
2023/04/03 05:19:35;;;;;;;7.47;5.40;;;;;;;2.94;100.00;100312.75;5546705;32;33842;-85
2023/04/03 05:22:39;;;;;;;7.45;5.60;;;;;;;3.09;100.00;100317.72;5541615;32;33893;-85
2023/04/03 05:25:44;;;;;;;8.60;6.20;;;;;;;3.04;100.00;100322.19;5538520;32;34138;-85
2023/04/03 05:28:47;;;;;;;7.35;5.60;;;;;;;3.02;100.00;100329.19;5542002;32;34211;-86
2023/04/03 05:31:50;;;;;;;8.75;5.60;;;;;;;3.13;100.00;100322.88;5532002;32;34140;-86
2023/04/03 05:34:53;;;;;;;7.53;5.60;;;;;;;3.21;100.00;100320.97;5531548;32;34010;-86
2023/04/03 05:37:56;;;;;;;7.57;5.47;;;;;;;3.34;100.00;100322.47;5536621;32;35324;-86
2023/04/03 05:40:59;;;;;;;8.40;5.57;;;;;;;3.45;100.00;100323.97;5540775;32;34471;-86
2023/04/03 05:44:02;;;;;;;7.40;5.30;;;;;;;3.41;100.00;100324.97;5532914;32;33978;-86
2023/04/03 05:47:05;;;;;;;7.30;5.30;;;;;;;3.40;100.00;100324.09;5559124;32;34617;-86
2023/04/03 05:50:08;;;;;;;7.65;5.78;;;;;;;3.46;100.00;100323.09;5541215;32;34861;-85
2023/04/03 05:53:21;;;;;;;8.98;5.80;;;;;;;3.67;100.00;100320.91;5542689;32;34350;-86
2023/04/03 05:56:24;;;;;;;7.35;5.45;;;;;;;3.67;100.00;100329.63;5541473;32;33631;-86
2023/04/03 05:59:27;;;;;;;6.72;5.50;;;;;;;3.68;100.00;100333.13;5540595;32;34047;-86
2023/04/03 06:02:31;;;;;;;7.12;5.32;;;;;;;3.52;100.00;100329.97;5542832;32;34596;-88
2023/04/03 06:05:36;;;;;;;9.27;5.47;;;;;;;3.52;100.00;100329.97;5523888;32;33844;-87
2023/04/03 06:08:39;;;;;;;8.00;5.43;;;;;;;3.67;100.00;100334.03;5530532;32;34137;-85
2023/04/03 06:11:42;;;;;;;9.90;5.55;;;;;;;3.76;100.00;100341.69;5524968;32;34516;-87
2023/04/03 06:14:45;;;;;;;9.98;5.55;;;;;;;4.89;100.00;100340.75;5531665;32;34520;-86
2023/04/03 06:17:49;;;;;;;7.30;5.15;;;;;;;6.91;87.97;100333.75;5547190;32;34676;-87
2023/04/03 06:20:51;;;;;;;5.40;4.87;;;;;;;7.46;81.52;100340.59;5537041;32;34375;-86
2023/04/03 06:23:55;;;;;;;7.80;4.87;;;;;;;7.20;83.32;100339.75;5533429;32;34033;-86
2023/04/03 06:26:58;;;;;;;8.40;4.97;;;;;;;6.59;86.08;100336.56;5542786;32;34011;-86
2023/04/03 06:30:01;;;;;;;7.25;4.85;;;;;;;6.45;87.31;100346.72;5541655;32;33719;-87
2023/04/03 06:33:05;;;;;;;5.93;4.55;;;;;;;6.23;88.85;100339.50;5523920;32;34538;-86
2023/04/03 06:36:10;;;;;;;10.13;4.75;;;;;;;5.98;89.35;100342.03;5546187;32;33349;-85
2023/04/03 06:39:15;;;;;;;5.70;4.30;;;;;;;5.98;90.10;100339.41;5538516;32;33791;-84
2023/04/03 06:42:18;;;;;;;6.57;4.70;;;;;;;5.78;89.16;100354.91;5521748;32;34577;-85
2023/04/03 06:45:21;;;;;;;6.22;4.20;;;;;;;6.40;85.05;100354.78;5529961;32;33483;-85
2023/04/03 06:48:24;;;;;;;5.57;4.25;;;;;;;7.96;77.60;100347.47;5539883;32;33486;-85
2023/04/03 06:51:29;;;;;;;6.87;3.40;;;;;;;10.31;65.29;100346.97;5536657;32;34570;-84
2023/04/03 06:54:32;;;;;;;3.70;3.30;;;;;;;10.21;60.63;100351.03;5544542;32;33766;-85
2023/04/03 06:57:35;;;;;;;4.75;3.62;;;;;;;9.20;63.27;100353.03;5544082;32;34603;-85
2023/04/03 07:00:39;;;;;;;3.53;3.22;;;;;;;8.34;67.01;100354.78;5547609;32;33835;-85
2023/04/03 07:03:42;;;;;;;5.57;3.45;;;;;;;8.76;66.21;100361.03;5540091;32;33609;-85
2023/04/03 07:06:46;;;;;;;3.65;3.10;;;;;;;8.87;66.45;100370.28;5526933;32;33903;-86
2023/04/03 07:09:49;;;;;;;3.35;2.87;;;;;;;8.63;65.17;100363.34;5539917;32;34202;-90
2023/04/03 07:12:52;;;;;;;3.30;3.00;;;;;;;7.61;69.22;100370.81;5521513;32;34286;-91
2023/04/03 07:15:56;;;;;;;4.07;3.00;;;;;;;7.98;68.90;100373.00;5525867;32;34842;-91
2023/04/03 07:18:59;;;;;;;4.07;3.15;;;;;;;7.28;69.71;100382.56;5534390;32;33973;-91
2023/04/03 07:22:02;;;;;;;6.47;3.05;;;;;;;7.21;70.89;100386.34;5528041;32;34147;-87
2023/04/03 07:25:07;;;;;;;3.33;2.85;;;;;;;7.20;71.18;100381.97;5533378;32;34168;-86
2023/04/03 07:28:09;;;;;;;3.12;2.60;;;;;;;7.53;69.83;100386.06;5534897;32;34743;-87
2023/04/03 07:31:16;;;;;;;4.57;2.92;;;;;;;7.52;69.36;100384.34;5533308;32;34130;-87
2023/04/03 07:34:19;;;;;;;4.20;2.83;;;;;;;7.47;69.44;100387.16;5525145;32;33732;-87
2023/04/03 07:37:22;;;;;;;3.28;2.45;;;;;;;7.23;68.18;100383.63;5530397;32;34901;-86
2023/04/03 07:40:25;;;;;;;3.37;2.62;;;;;;;7.21;69.69;100390.75;5538036;32;34407;-86
2023/04/03 07:43:28;;;;;;;3.75;2.65;;;;;;;7.38;68.58;100392.78;5532296;32;33967;-86
2023/04/03 07:46:32;;;;;;;2.60;2.40;;;;;;;7.88;68.14;100388.31;5528585;32;33639;-87
2023/04/03 07:49:39;;;;;;;2.40;2.20;;;;;;;8.36;66.09;100389.09;5524962;32;34291;-87
2023/04/03 07:52:42;;;;;;;2.30;2.10;;;;;;;8.16;66.40;100390.75;5526604;32;33731;-85
2023/04/03 07:55:47;;;;;;;2.58;2.37;;;;;;;8.25;66.03;100393.94;5510577;32;34362;-86
2023/04/03 07:58:50;;;;;;;2.90;2.60;;;;;;;8.55;64.03;100397.16;5519481;32;33845;-85
2023/04/03 08:01:53;;;;;;;2.90;2.60;;;;;;;8.45;63.43;100396.63;5531952;32;34359;-85
2023/04/03 08:04:56;;;;;;;2.50;2.30;;;;;;;8.12;63.90;100398.84;5530362;32;34267;-84
2023/04/03 08:07:59;;;;;;;2.95;2.75;;;;;;;8.38;62.17;100399.59;5531910;32;34462;-84
2023/04/03 08:11:05;;;;;;;2.85;2.60;;;;;;;8.55;61.10;100394.50;5529182;32;34671;-84
2023/04/03 08:14:08;;;;;;;2.80;2.50;;;;;;;9.12;61.43;100399.22;5541882;32;35009;-87
2023/04/03 08:17:13;;;;;;;2.58;2.37;;;;;;;9.61;58.95;100394.44;5534851;32;34023;-85
2023/04/03 08:20:17;;;;;;;2.75;2.50;;;;;;;10.38;58.41;100406.72;5532752;32;35623;-86
2023/04/03 08:23:20;;;;;;;2.55;2.35;;;;;;;10.55;56.26;100401.59;5526594;32;33957;-86
2023/04/03 08:26:22;;;;;;;2.83;2.53;;;;;;;10.86;54.68;100402.72;5526095;32;34245;-86
2023/04/03 08:29:26;;;;;;;2.87;2.28;;;;;;;10.70;52.62;100403.47;5530082;32;34152;-86
2023/04/03 08:32:29;;;;;;;2.53;2.33;;;;;;;11.14;50.05;100401.28;5527988;32;34161;-86
2023/04/03 08:35:32;;;;;;;2.67;2.10;;;;;;;12.75;48.07;100402.31;5529817;32;34465;-86
2023/04/03 08:38:37;;;;;;;2.15;2.03;;;;;;;12.99;44.92;100408.94;5534202;32;34239;-86
2023/04/03 08:41:42;;;;;;;2.60;2.40;;;;;;;11.00;48.24;100413.47;5533159;32;34218;-86
2023/04/03 08:45:06;;;;;;;2.90;2.30;;;;;;;11.29;48.76;100410.25;5526234;32;35249;-84
2023/04/03 08:48:21;;;;;;;2.50;2.30;;;;;;;11.54;47.85;100408.97;5527921;32;34142;-84
2023/04/03 08:51:25;;;;;;;2.42;2.22;;;;;;;10.41;50.75;100410.19;5525805;32;33477;-84
2023/04/03 08:54:33;;;;;;;3.80;2.47;;;;;;;11.00;48.37;100408.16;5526843;32;33569;-89
2023/04/03 08:57:42;;;;;;;4.03;2.30;;;;;;;11.90;45.41;100407.03;5527180;32;33625;-88
2023/04/03 09:00:47;;;;;;;2.30;2.10;;;;;;;12.16;46.30;100400.31;5542664;32;33562;-85
2023/04/03 09:03:50;;;;;;;2.40;2.20;;;;;;;13.84;42.06;100405.63;5539382;32;33521;-85
2023/04/03 09:06:58;;;;;;;2.65;1.83;;;;;;;14.97;40.09;100409.97;5534475;32;34052;-86
2023/04/03 09:10:02;;;;;;;1.80;1.70;;;;;;;15.32;39.14;100407.53;5533103;32;34386;-84
2023/04/03 09:13:13;;;;;;;5.60;2.28;;;;;;;14.11;37.51;100413.66;5548930;32;34055;-86
2023/04/03 09:16:48;;;;;;;2.33;2.10;;;;;;;13.64;40.04;100402.41;5538214;32;33910;-85
2023/04/03 09:20:28;;;;;;;4.12;2.22;;;;;;;15.17;38.81;100406.75;5542743;32;34392;-85
2023/04/03 09:23:45;;;;;;;1.95;1.85;;;;;;;15.87;38.17;100409.06;5557983;32;34261;-86
2023/04/03 09:26:56;;;;;;;2.22;2.12;;;;;;;14.57;37.38;100402.78;5532628;32;34402;-84
2023/04/03 09:29:58;;;;;;;7.47;2.15;;;;;;;12.91;40.93;100409.38;5530028;32;35301;-84
2023/04/03 09:33:01;;;;;;;2.62;2.40;;;;;;;11.97;42.76;100414.59;5536562;32;34637;-85
2023/04/03 09:36:04;;;;;;;2.75;1.90;;;;;;;13.28;41.59;100403.66;5539570;32;34085;-84
2023/04/03 09:39:17;;;;;;;2.05;1.95;;;;;;;13.56;40.40;100399.31;5535657;32;34046;-84
2023/04/03 09:42:23;;;;;;;2.25;2.05;;;;;;;14.14;38.15;100409.94;5554845;32;34667;-89
2023/04/03 09:45:28;;;;;;;2.83;2.10;;;;;;;12.99;40.56;100403.59;5558584;32;34228;-88
2023/04/03 09:48:30;;;;;;;2.03;1.92;;;;;;;12.60;41.93;100398.75;5549142;32;33855;-85
2023/04/03 09:51:33;;;;;;;2.40;2.20;;;;;;;12.92;41.94;100398.66;5546978;32;34160;-84
2023/04/03 09:54:40;;;;;;;3.62;2.80;;;;;;;12.26;41.38;100392.69;5565611;32;33916;-84
2023/04/03 09:57:45;;;;;;;2.70;1.70;;;;;;;12.16;42.73;100399.47;5567391;32;33776;-84
2023/04/03 10:00:55;;;;;;;1.70;1.60;;;;;;;12.10;42.06;100390.03;5554185;32;34671;-86
2023/04/03 10:04:17;;;;;;;1.73;1.62;;;;;;;11.72;43.24;100394.69;5573150;32;35800;-85
2023/04/03 10:07:50;;;;;;;2.10;1.90;;;;;;;11.48;43.34;100393.34;5576351;32;34884;-85
2023/04/03 10:11:10;;;;;;;2.22;2.03;;;;;;;11.17;44.52;100401.97;5537565;32;33748;-85
2023/04/03 10:14:17;;;;;;;2.20;2.00;;;;;;;10.81;45.76;100392.31;5541062;32;35378;-85
2023/04/03 10:17:43;;;;;;;2.80;1.90;;;;;;;10.73;46.19;100402.47;5556328;32;33049;-85
2023/04/03 10:20:50;;;;;;;1.98;1.80;;;;;;;10.72;45.75;100398.09;5542730;32;34622;-84
2023/04/03 10:24:06;;;;;;;1.70;1.50;;;;;;;11.08;45.37;100399.81;5562231;32;34084;-84
2023/04/03 10:27:16;;;;;;;1.90;1.70;;;;;;;10.69;44.95;100400.88;5549655;32;33523;-89
2023/04/03 10:30:41;;;;;;;1.60;1.50;;;;;;;10.98;44.89;100401.22;5555388;32;34074;-87
2023/04/03 10:34:04;;;;;;;4.40;1.55;;;;;;;10.87;43.96;100402.63;5557834;32;34025;-84
2023/04/03 10:37:22;;;;;;;1.40;1.30;;;;;;;10.45;44.36;100412.63;5561716;32;34179;-84
2023/04/03 10:40:47;;;;;;;1.40;1.30;;;;;;;10.42;44.61;100404.81;5553640;32;34233;-84
2023/04/03 10:44:16;;;;;;;1.70;1.60;;;;;;;10.01;45.12;100407.66;5551144;32;33838;-84
2023/04/03 10:47:35;;;;;;;1.62;1.50;;;;;;;10.54;45.23;100402.50;5555625;32;33875;-84
2023/04/03 10:50:52;;;;;;;2.40;1.80;;;;;;;10.72;44.03;100395.44;5555615;32;35028;-85
2023/04/03 10:54:09;;;;;;;2.10;1.80;;;;;;;10.36;44.01;100399.81;5556417;32;34956;-85
2023/04/03 10:57:12;;;;;;;3.58;1.70;;;;;;;10.63;44.00;100394.97;5552542;32;33645;-89
2023/04/03 11:00:24;;;;;;;1.62;1.52;;;;;;;10.57;44.62;100397.91;5571255;32;34176;-85
2023/04/03 11:03:36;;;;;;;1.60;1.50;;;;;;;10.44;44.57;100402.09;5556044;32;34239;-84
2023/04/03 11:06:51;;;;;;;1.50;1.40;;;;;;;10.83;46.05;100394.91;5564791;32;34333;-85
2023/04/03 11:10:16;;;;;;;1.58;1.45;;;;;;;10.78;43.64;100395.97;5562970;32;34162;-84
2023/04/03 11:13:33;;;;;;;2.00;1.37;;;;;;;11.00;43.91;100392.25;5551666;32;34453;-84
2023/04/03 11:16:51;;;;;;;1.48;1.37;;;;;;;11.40;43.17;100381.34;5548276;32;34084;-84
2023/04/03 11:20:01;;;;;;;2.58;1.80;;;;;;;10.69;44.38;100395.59;5541640;32;33827;-84
2023/04/03 11:23:28;;;;;;;3.95;1.60;;;;;;;10.64;44.36;100388.72;5553340;32;34088;-84
2023/04/03 11:26:42;;;;;;;1.75;1.40;;;;;;;10.95;44.14;100382.81;5555970;32;34071;-84
2023/04/03 11:29:46;;;;;;;1.60;1.50;;;;;;;10.97;42.99;100379.13;5553057;32;34622;-85
2023/04/03 11:32:49;;;;;;;1.48;1.37;;;;;;;10.80;43.02;100380.00;5543587;32;34217;-85
2023/04/03 11:35:57;;;;;;;1.70;1.60;;;;;;;10.48;43.62;100370.06;5551072;32;33516;-89
2023/04/03 11:39:15;;;;;;;1.42;1.30;;;;;;;10.76;43.09;100365.19;5552563;32;33742;-89
2023/04/03 11:42:39;;;;;;;1.40;1.30;;;;;;;10.35;44.45;100364.47;5554128;32;33810;-86
2023/04/03 11:45:49;;;;;;;1.55;1.45;;;;;;;10.15;44.64;100360.13;5549232;32;33879;-87
2023/04/03 11:48:53;;;;;;;2.25;1.50;;;;;;;10.73;43.61;100363.53;5544496;32;34730;-86
2023/04/03 11:51:56;;;;;;;2.72;1.70;;;;;;;10.48;44.81;100359.47;5554662;32;33518;-86
2023/04/03 11:54:59;;;;;;;1.40;1.30;;;;;;;10.72;43.92;100361.78;5550727;32;34044;-86
2023/04/03 11:58:13;;;;;;;1.75;1.62;;;;;;;10.44;43.96;100368.50;5561074;32;33766;-86
2023/04/03 12:01:54;;;;;;;1.90;0.95;;;;;;;10.48;44.14;100366.56;5554377;32;33919;-86
2023/04/03 12:05:30;;;;;;;1.52;1.30;;;;;;;10.80;43.22;100360.56;5557362;32;34196;-86
2023/04/03 12:08:32;;;;;;;1.60;1.50;;;;;;;10.19;43.85;100372.31;5570342;26;34296;-84
2023/04/03 12:11:36;;;;;;;2.15;1.45;;;;;;;10.29;44.07;100364.78;5551237;32;34211;-84
2023/04/03 12:14:40;;;;;;;1.48;1.37;;;;;;;10.46;43.94;100366.63;5544928;32;34736;-84
2023/04/03 12:17:43;;;;;;;3.08;1.58;;;;;;;10.52;44.27;100360.16;5549745;32;34738;-91
2023/04/03 12:20:48;;;;;;;1.58;1.45;;;;;;;10.61;44.27;100359.69;5537757;32;35328;-91
2023/04/03 12:24:08;;;;;;;3.40;1.60;;;;;;;10.76;43.65;100347.44;5542715;32;34057;-91
2023/04/03 12:27:38;;;;;;;1.58;1.48;;;;;;;10.51;43.62;100358.44;5550556;32;34000;-87
2023/04/03 12:30:43;;;;;;;1.75;1.65;;;;;;;9.91;44.34;100365.66;5538831;32;33970;-86
2023/04/03 12:34:15;;;;;;;1.50;1.40;;;;;;;10.09;44.58;100356.00;5537508;32;34196;-87
2023/04/03 12:37:20;;;;;;;1.40;1.30;;;;;;;10.09;44.65;100350.69;5545355;32;33897;-86
2023/04/03 12:40:41;;;;;;;2.08;1.40;;;;;;;10.01;45.28;100344.03;5534476;32;34039;-87
2023/04/03 12:44:04;;;;;;;1.45;1.35;;;;;;;10.23;44.83;100352.69;5535906;32;34227;-86
2023/04/03 12:47:21;;;;;;;1.37;1.27;;;;;;;10.49;43.96;100350.56;5544272;32;34031;-86
2023/04/03 12:50:30;;;;;;;1.65;1.48;;;;;;;10.26;44.59;100343.69;5533330;32;33945;-86
2023/04/03 12:53:38;;;;;;;3.30;1.83;;;;;;;10.34;44.70;100338.03;5536636;32;34531;-86
2023/04/03 12:56:41;;;;;;;1.67;1.58;;;;;;;10.55;44.30;100343.25;5540993;32;34983;-90
2023/04/03 12:59:46;;;;;;;1.40;1.30;;;;;;;10.36;43.21;100342.31;5542766;32;34424;-90
2023/04/03 13:02:49;;;;;;;1.70;1.55;;;;;;;9.97;43.40;100338.03;5540588;32;33766;-86
2023/04/03 13:05:57;;;;;;;1.50;1.30;;;;;;;10.19;44.02;100337.84;5545493;32;35251;-87
2023/04/03 13:09:00;;;;;;;1.70;1.40;;;;;;;10.84;43.21;100327.63;5555369;32;33650;-85
2023/04/03 13:12:11;;;;;;;1.85;1.70;;;;;;;10.73;43.07;100321.09;5556442;32;34234;-85
2023/04/03 13:15:42;;;;;;;1.70;1.60;;;;;;;10.63;42.50;100326.00;5555467;32;34667;-86
2023/04/03 13:18:50;;;;;;;;;;;;;;;10.67;42.12;100323.19;5528540;32;34611;-85
2023/04/03 13:22:07;;;;;;;3.12;1.52;;;;;;;10.81;42.82;100317.19;5542932;32;34629;-85
2023/04/03 13:25:13;;;;;;;3.58;1.67;;;;;;;11.11;42.35;100316.50;5553875;32;34117;-84
2023/04/03 13:28:21;;;;;;;2.55;1.45;;;;;;;10.99;42.83;100310.03;5553089;32;33993;-84
2023/04/03 13:31:30;;;;;;;1.40;1.30;;;;;;;11.26;41.83;100310.38;5553540;32;33771;-85
2023/04/03 13:34:42;;;;;;;1.55;1.23;;;;;;;11.73;40.90;100300.72;5552488;32;34224;-85
2023/04/03 13:38:00;;;;;;;2.50;1.40;;;;;;;10.98;41.52;100301.22;5558740;32;34099;-86
2023/04/03 13:41:23;;;;;;;2.58;1.65;;;;;;;11.15;41.74;100310.94;5553132;32;34425;-84
2023/04/03 13:44:33;;;;;;;3.80;1.42;;;;;;;11.04;41.88;100305.34;5544265;32;35295;-89
2023/04/03 13:47:43;;;;;;;1.67;1.58;;;;;;;11.19;41.14;100306.34;5550223;32;35040;-86
2023/04/03 13:50:54;;;;;;;1.62;1.52;;;;;;;11.36;40.54;100301.91;5545733;32;33915;-87
2023/04/03 13:54:19;;;;;;;2.85;1.23;;;;;;;11.27;41.49;100298.81;5541505;32;33855;-85
2023/04/03 13:57:22;;;;;;;1.62;1.52;;;;;;;11.27;40.53;100297.97;5545601;32;33827;-85
2023/04/03 14:00:34;;;;;;;1.80;1.60;;;;;;;11.07;41.46;100301.69;5552976;32;33835;-84
2023/04/03 14:03:40;;;;;;;1.58;1.48;;;;;;;11.23;40.41;100293.75;5549633;32;33711;-85
2023/04/03 14:06:43;;;;;;;1.95;1.50;;;;;;;10.98;40.73;100277.34;5545875;32;33984;-85
2023/04/03 14:09:46;;;;;;;1.77;1.58;;;;;;;11.16;41.01;100279.94;5543720;32;33882;-85
2023/04/03 14:12:50;;;;;;;2.03;1.52;;;;;;;11.23;40.35;100281.34;5536512;32;34337;-85
2023/04/03 14:15:53;;;;;;;1.52;1.42;;;;;;;11.16;40.86;100283.47;5546799;32;34689;-85
2023/04/03 14:18:59;;;;;;;2.42;1.40;;;;;;;10.81;40.92;100274.72;5548647;32;33801;-86
2023/04/03 14:22:23;;;;;;;1.37;1.35;;;;;;;10.60;41.92;100274.87;5567162;32;34246;-85
2023/04/03 14:25:26;;;;;;;1.37;1.27;;;;;;;10.45;41.31;100277.37;5526716;32;34650;-85
2023/04/03 14:28:32;;;;;;;1.50;1.30;;;;;;;10.41;41.44;100277.59;5546071;32;34454;-85
2023/04/03 14:31:35;;;;;;;1.80;1.70;;;;;;;10.55;42.42;100272.47;5550713;32;33951;-86
2023/04/03 14:34:38;;;;;;;1.75;1.60;;;;;;;10.80;41.60;100279.16;5552767;32;34049;-85
2023/04/03 14:37:41;;;;;;;2.45;1.77;;;;;;;10.97;41.06;100274.75;5553398;32;34122;-85
2023/04/03 14:40:47;;;;;;;1.73;1.62;;;;;;;10.77;41.99;100274.87;5553432;32;34066;-85
2023/04/03 14:43:50;;;;;;;2.03;1.40;;;;;;;10.73;41.88;100273.34;5554408;32;34740;-85
2023/04/03 14:46:54;;;;;;;1.85;1.75;;;;;;;10.98;41.76;100277.34;5553038;32;34099;-85
2023/04/03 14:50:04;;;;;;;2.17;1.92;;;;;;;10.69;41.73;100276.19;5549695;32;34504;-85
2023/04/03 14:53:07;;;;;;;1.90;1.80;;;;;;;10.62;41.80;100276.50;5542380;32;34131;-85
2023/04/03 14:56:23;;;;;;;2.75;2.28;;;;;;;10.37;42.74;100285.69;5534010;32;34190;-89
2023/04/03 14:59:27;;;;;;;1.70;1.52;;;;;;;10.31;42.56;100283.34;5533942;32;33999;-86
2023/04/03 15:02:35;;;;;;;1.90;1.70;;;;;;;10.19;42.66;100283.97;5531442;32;34542;-86
2023/04/03 15:05:38;;;;;;;2.00;1.77;;;;;;;10.33;42.91;100284.16;5531388;32;34379;-86
2023/04/03 15:08:43;;;;;;;2.80;2.03;;;;;;;10.49;43.37;100281.59;5530364;32;34415;-86
2023/04/03 15:11:47;;;;;;;2.15;1.58;;;;;;;10.42;43.23;100288.13;5529920;32;33591;-86
2023/04/03 15:14:49;;;;;;;2.47;2.00;;;;;;;10.24;43.29;100277.50;5531343;32;34705;-86
